KGAG/GAG METAR and TAF weather

Enter ICAO airport designator
Station Type Date Time Source
KGAG METAR 2022/05/24 11:13 UTC NOAA

KGAG 241113Z AUTO 00000KT 5SM RA BR BKN004 BKN016 OVC070 12/11 A2987 RMK AO2 P0007 T01170111 $


Station Type Date Time Source
KGAG Decoded METAR 2022/05/24 11:13 UTC NOAA

GAGE AIRPORT, OK, United States (KGAG) 36-18N 99-46W 668M
May 24, 2022 - 07:13 AM EDT / 2022.05.24 1113 UTC
Wind: Calm:0
Visibility: 5 mile(s):0
Sky conditions: overcast
Weather: rain; mist
Precipitation last hour: 0.07 inches
Temperature: 53.1 F (11.7 C)
Dew Point: 52.0 F (11.1 C)
Relative Humidity: 96%
Pressure (altimeter): 29.87 in. Hg (1011 hPa)
ob: KGAG 241113Z AUTO 00000KT 5SM RA BR BKN004 BKN016 OVC070 12/11 A2987 RMK AO2 P0007 T01170111
cycle: 11

Station Type Date Time Source
KGAG TAF 2018/03/21 06:22 UTC NOAA

TAF KGAG 210520Z 2106/2206 VRB04KT P6SM SCT250
FM211300 16008KT P6SM SCT250
FM211800 18012G22KT P6SM BKN250

Example: see airport list